sensor_id;sensor_type;location;lat;lon;timestamp;temperature;humidity
20487;DHT22;10402;49.012;8.370;2024-01-15T00:00:42;1.10;75.40
20487;DHT22;10402;49.012;8.370;2024-01-15T00:03:08;1.10;75.20
20487;DHT22;10402;49.012;8.370;2024-01-15T00:05:33;1.10;75.00
20487;DHT22;10402;49.012;8.370;2024-01-15T00:07:59;1.10;75.20
20487;DHT22;10402;49.012;8.370;2024-01-15T00:10:24;1.10;75.20
20487;DHT22;10402;49.012;8.370;2024-01-15T00:12:50;1.10;75.20
20487;DHT22;10402;49.012;8.370;2024-01-15T00:15:15;1.10;75.10
20487;DHT22;10402;49.012;8.370;2024-01-15T00:17:41;1.00;75.20
20487;DHT22;10402;49.012;8.370;2024-01-15T00:20:07;1.00;75.30
20487;DHT22;10402;49.012;8.370;2024-01-15T00:22:32;1.00;75.40
20487;DHT22;10402;49.012;8.370;2024-01-15T00:25:01;1.10;75.50
20487;DHT22;10402;49.012;8.370;2024-01-15T00:27:26;1.10;75.40
20487;DHT22;10402;49.012;8.370;2024-01-15T00:29:52;1.10;75.40
20487;DHT22;10402;49.012;8.370;2024-01-15T00:32:17;1.10;75.40
20487;DHT22;10402;49.012;8.370;2024-01-15T00:34:43;1.10;75.50
20487;DHT22;10402;49.012;8.370;2024-01-15T00:37:08;1.10;75.50
20487;DHT22;10402;49.012;8.370;2024-01-15T00:39:34;1.10;75.40
20487;DHT22;10402;49.012;8.370;2024-01-15T00:41:59;1.10;75.50
20487;DHT22;10402;49.012;8.370;2024-01-15T00:44:25;1.10;75.50
20487;DHT22;10402;49.012;8.370;2024-01-15T00:46:51;1.10;75.50
20487;DHT22;10402;49.012;8.370;2024-01-15T00:49:16;1.10;75.60
20487;DHT22;10402;49.012;8.370;2024-01-15T00:51:42;1.10;75.70
20487;DHT22;10402;49.012;8.370;2024-01-15T00:54:07;1.00;75.70
20487;DHT22;10402;49.012;8.370;2024-01-15T00:56:33;1.10;75.70
20487;DHT22;10402;49.012;8.370;2024-01-15T00:58:59;1.10;75.80
20487;DHT22;10402;49.012;8.370;2024-01-15T01:01:25;1.10;75.80
20487;DHT22;10402;49.012;8.370;2024-01-15T01:03:50;1.10;75.90
20487;DHT22;10402;49.012;8.370;2024-01-15T01:06:16;1.10;75.80
20487;DHT22;10402;49.012;8.370;2024-01-15T01:08:41;1.10;75.80
20487;DHT22;10402;49.012;8.370;2024-01-15T01:11:07;1.10;75.80
20487;DHT22;10402;49.012;8.370;2024-01-15T01:13:33;1.10;75.80
20487;DHT22;10402;49.012;8.370;2024-01-15T01:15:58;1.10;75.70
20487;DHT22;10402;49.012;8.370;2024-01-15T01:18:24;1.10;75.80
20487;DHT22;10402;49.012;8.370;2024-01-15T01:20:50;1.00;75.80
20487;DHT22;10402;49.012;8.370;2024-01-15T01:23:16;1.00;75.80
20487;DHT22;10402;49.012;8.370;2024-01-15T01:25:41;1.00;75.80
20487;DHT22;10402;49.012;8.370;2024-01-15T01:28:07;0.90;75.90
20487;DHT22;10402;49.012;8.370;2024-01-15T01:30:33;1.00;76.10
20487;DHT22;10402;49.012;8.370;2024-01-15T01:32:58;0.90;76.10
20487;DHT22;10402;49.012;8.370;2024-01-15T01:35:24;1.00;76.20
20487;DHT22;10402;49.012;8.370;2024-01-15T01:37:50;1.00;76.20
20487;DHT22;10402;49.012;8.370;2024-01-15T01:40:15;1.00;76.20
20487;DHT22;10402;49.012;8.370;2024-01-15T01:42:41;1.00;76.20
20487;DHT22;10402;49.012;8.370;2024-01-15T01:45:07;1.00;76.20
20487;DHT22;10402;49.012;8.370;2024-01-15T01:47:32;1.00;76.30
20487;DHT22;10402;49.012;8.370;2024-01-15T01:49:58;1.00;76.40
20487;DHT22;10402;49.012;8.370;2024-01-15T01:52:23;1.00;76.50
20487;DHT22;10402;49.012;8.370;2024-01-15T01:54:49;1.00;76.60
20487;DHT22;10402;49.012;8.370;2024-01-15T01:57:16;1.00;76.60
20487;DHT22;10402;49.012;8.370;2024-01-15T01:59:43;1.10;76.70
20487;DHT22;10402;49.012;8.370;2024-01-15T02:02:09;1.00;76.60
20487;DHT22;10402;49.012;8.370;2024-01-15T02:04:36;1.10;76.70
20487;DHT22;10402;49.012;8.370;2024-01-15T02:07:02;1.10;76.50
20487;DHT22;10402;49.012;8.370;2024-01-15T02:09:28;1.10;76.50
20487;DHT22;10402;49.012;8.370;2024-01-15T02:11:53;1.10;76.50
20487;DHT22;10402;49.012;8.370;2024-01-15T02:14:19;1.10;76.40
20487;DHT22;10402;49.012;8.370;2024-01-15T02:16:45;1.10;76.50
20487;DHT22;10402;49.012;8.370;2024-01-15T02:19:17;1.10;76.40
20487;DHT22;10402;49.012;8.370;2024-01-15T02:21:43;1.10;76.60
20487;DHT22;10402;49.012;8.370;2024-01-15T02:24:09;1.10;76.70
20487;DHT22;10402;49.012;8.370;2024-01-15T02:26:34;1.10;76.90
20487;DHT22;10402;49.012;8.370;2024-01-15T02:29:01;1.10;76.90
20487;DHT22;10402;49.012;8.370;2024-01-15T02:31:27;1.10;76.80
20487;DHT22;10402;49.012;8.370;2024-01-15T02:33:53;1.10;76.80
20487;DHT22;10402;49.012;8.370;2024-01-15T02:36:18;1.10;76.80
20487;DHT22;10402;49.012;8.370;2024-01-15T02:38:44;1.10;76.80
20487;DHT22;10402;49.012;8.370;2024-01-15T02:41:09;1.20;77.10
20487;DHT22;10402;49.012;8.370;2024-01-15T02:43:35;1.20;76.80
20487;DHT22;10402;49.012;8.370;2024-01-15T02:46:00;1.20;76.70
20487;DHT22;10402;49.012;8.370;2024-01-15T02:48:26;1.20;76.60
20487;DHT22;10402;49.012;8.370;2024-01-15T02:50:51;1.20;76.60
20487;DHT22;10402;49.012;8.370;2024-01-15T02:53:17;1.20;76.70
20487;DHT22;10402;49.012;8.370;2024-01-15T02:55:42;1.20;76.80
20487;DHT22;10402;49.012;8.370;2024-01-15T02:58:08;1.20;76.80
20487;DHT22;10402;49.012;8.370;2024-01-15T03:00:33;1.20;76.80
20487;DHT22;10402;49.012;8.370;2024-01-15T03:02:59;1.20;76.80
20487;DHT22;10402;49.012;8.370;2024-01-15T03:05:25;1.20;76.90
20487;DHT22;10402;49.012;8.370;2024-01-15T03:07:50;1.20;76.80
20487;DHT22;10402;49.012;8.370;2024-01-15T03:10:16;1.20;77.50
20487;DHT22;10402;49.012;8.370;2024-01-15T03:12:41;1.20;76.80
20487;DHT22;10402;49.012;8.370;2024-01-15T03:15:07;1.20;76.90
20487;DHT22;10402;49.012;8.370;2024-01-15T03:17:33;1.20;77.00
20487;DHT22;10402;49.012;8.370;2024-01-15T03:19:58;1.30;76.90
20487;DHT22;10402;49.012;8.370;2024-01-15T03:22:24;1.30;76.70
20487;DHT22;10402;49.012;8.370;2024-01-15T03:24:49;1.30;76.70
20487;DHT22;10402;49.012;8.370;2024-01-15T03:27:15;1.30;76.60
20487;DHT22;10402;49.012;8.370;2024-01-15T03:29:41;1.30;76.80
20487;DHT22;10402;49.012;8.370;2024-01-15T03:32:06;1.30;76.90
20487;DHT22;10402;49.012;8.370;2024-01-15T03:34:32;1.30;76.80
20487;DHT22;10402;49.012;8.370;2024-01-15T03:36:58;1.30;76.80
20487;DHT22;10402;49.012;8.370;2024-01-15T03:39:24;1.30;76.80
20487;DHT22;10402;49.012;8.370;2024-01-15T03:41:50;1.30;76.80
20487;DHT22;10402;49.012;8.370;2024-01-15T03:44:15;1.30;76.80
20487;DHT22;10402;49.012;8.370;2024-01-15T03:46:41;1.30;76.80
20487;DHT22;10402;49.012;8.370;2024-01-15T03:49:06;1.30;76.90
20487;DHT22;10402;49.012;8.370;2024-01-15T03:51:32;1.30;76.90
20487;DHT22;10402;49.012;8.370;2024-01-15T03:53:58;1.40;76.90
20487;DHT22;10402;49.012;8.370;2024-01-15T03:56:23;1.40;76.90
20487;DHT22;10402;49.012;8.370;2024-01-15T03:58:49;1.40;76.80
20487;DHT22;10402;49.012;8.370;2024-01-15T04:01:14;1.40;76.80
20487;DHT22;10402;49.012;8.370;2024-01-15T04:03:40;1.40;76.80
20487;DHT22;10402;49.012;8.370;2024-01-15T04:06:05;1.40;76.80
20487;DHT22;10402;49.012;8.370;2024-01-15T04:08:31;1.40;76.70
20487;DHT22;10402;49.012;8.370;2024-01-15T04:10:56;1.40;76.80
20487;DHT22;10402;49.012;8.370;2024-01-15T04:13:22;1.40;76.90
20487;DHT22;10402;49.012;8.370;2024-01-15T04:15:48;1.40;76.90
20487;DHT22;10402;49.012;8.370;2024-01-15T04:18:15;1.40;77.10
20487;DHT22;10402;49.012;8.370;2024-01-15T04:20:41;1.40;77.10
20487;DHT22;10402;49.012;8.370;2024-01-15T04:23:06;1.50;77.40
20487;DHT22;10402;49.012;8.370;2024-01-15T04:25:32;1.40;77.40
20487;DHT22;10402;49.012;8.370;2024-01-15T04:27:57;1.40;77.50
20487;DHT22;10402;49.012;8.370;2024-01-15T04:30:23;1.40;77.60
20487;DHT22;10402;49.012;8.370;2024-01-15T04:32:48;1.50;77.60
20487;DHT22;10402;49.012;8.370;2024-01-15T04:35:14;1.50;77.60
20487;DHT22;10402;49.012;8.370;2024-01-15T04:37:40;1.50;77.60
20487;DHT22;10402;49.012;8.370;2024-01-15T04:40:06;1.50;77.60
20487;DHT22;10402;49.012;8.370;2024-01-15T04:42:31;1.50;77.60
20487;DHT22;10402;49.012;8.370;2024-01-15T04:44:57;1.50;77.70
20487;DHT22;10402;49.012;8.370;2024-01-15T04:47:23;1.50;77.60
20487;DHT22;10402;49.012;8.370;2024-01-15T04:49:48;1.50;77.70
20487;DHT22;10402;49.012;8.370;2024-01-15T04:52:14;1.50;77.80
20487;DHT22;10402;49.012;8.370;2024-01-15T04:54:40;1.50;77.80
20487;DHT22;10402;49.012;8.370;2024-01-15T04:57:05;1.50;77.80
20487;DHT22;10402;49.012;8.370;2024-01-15T04:59:31;1.50;78.00
20487;DHT22;10402;49.012;8.370;2024-01-15T05:01:56;1.40;78.00
20487;DHT22;10402;49.012;8.370;2024-01-15T05:04:22;1.40;78.20
20487;DHT22;10402;49.012;8.370;2024-01-15T05:06:49;1.40;78.30
20487;DHT22;10402;49.012;8.370;2024-01-15T05:09:15;1.50;78.50
20487;DHT22;10402;49.012;8.370;2024-01-15T05:11:40;1.40;78.40
20487;DHT22;10402;49.012;8.370;2024-01-15T05:14:06;1.50;78.60
20487;DHT22;10402;49.012;8.370;2024-01-15T05:16:31;1.50;78.60
20487;DHT22;10402;49.012;8.370;2024-01-15T05:18:57;1.50;78.70
20487;DHT22;10402;49.012;8.370;2024-01-15T05:21:22;1.40;78.70
20487;DHT22;10402;49.012;8.370;2024-01-15T05:23:48;1.40;78.70
20487;DHT22;10402;49.012;8.370;2024-01-15T05:26:14;1.40;78.70
20487;DHT22;10402;49.012;8.370;2024-01-15T05:28:41;1.50;78.80
20487;DHT22;10402;49.012;8.370;2024-01-15T05:31:08;1.50;78.80
20487;DHT22;10402;49.012;8.370;2024-01-15T05:33:33;1.50;78.80
20487;DHT22;10402;49.012;8.370;2024-01-15T05:35:59;1.50;78.80
20487;DHT22;10402;49.012;8.370;2024-01-15T05:38:24;1.50;78.80
20487;DHT22;10402;49.012;8.370;2024-01-15T05:40:50;1.50;78.80
20487;DHT22;10402;49.012;8.370;2024-01-15T05:43:16;1.50;79.00
20487;DHT22;10402;49.012;8.370;2024-01-15T05:45:43;1.50;79.20
20487;DHT22;10402;49.012;8.370;2024-01-15T05:48:09;1.40;79.10
20487;DHT22;10402;49.012;8.370;2024-01-15T05:50:34;1.50;79.30
20487;DHT22;10402;49.012;8.370;2024-01-15T05:53:00;1.40;79.40
20487;DHT22;10402;49.012;8.370;2024-01-15T05:55:25;1.40;79.50
20487;DHT22;10402;49.012;8.370;2024-01-15T05:57:51;1.50;79.80
20487;DHT22;10402;49.012;8.370;2024-01-15T06:00:17;1.50;79.80
20487;DHT22;10402;49.012;8.370;2024-01-15T06:02:42;1.50;79.90
20487;DHT22;10402;49.012;8.370;2024-01-15T06:05:08;1.50;79.80
20487;DHT22;10402;49.012;8.370;2024-01-15T06:07:34;1.60;79.90
20487;DHT22;10402;49.012;8.370;2024-01-15T06:10:00;1.60;79.90
20487;DHT22;10402;49.012;8.370;2024-01-15T06:12:27;1.50;79.90
20487;DHT22;10402;49.012;8.370;2024-01-15T06:14:53;1.60;80.00
20487;DHT22;10402;49.012;8.370;2024-01-15T06:17:18;1.60;80.00
20487;DHT22;10402;49.012;8.370;2024-01-15T06:19:44;1.50;80.00
20487;DHT22;10402;49.012;8.370;2024-01-15T06:22:09;1.50;80.10
20487;DHT22;10402;49.012;8.370;2024-01-15T06:24:35;1.50;80.40
20487;DHT22;10402;49.012;8.370;2024-01-15T06:27:00;1.50;80.40
20487;DHT22;10402;49.012;8.370;2024-01-15T06:29:26;1.50;80.50
20487;DHT22;10402;49.012;8.370;2024-01-15T06:31:55;1.50;80.40
20487;DHT22;10402;49.012;8.370;2024-01-15T06:34:20;1.50;80.40
20487;DHT22;10402;49.012;8.370;2024-01-15T06:36:46;1.50;80.60
20487;DHT22;10402;49.012;8.370;2024-01-15T06:39:12;1.50;80.60
20487;DHT22;10402;49.012;8.370;2024-01-15T06:41:37;1.50;80.60
20487;DHT22;10402;49.012;8.370;2024-01-15T06:44:12;1.50;80.70
20487;DHT22;10402;49.012;8.370;2024-01-15T06:46:44;1.50;80.80
20487;DHT22;10402;49.012;8.370;2024-01-15T06:49:09;1.60;80.90
20487;DHT22;10402;49.012;8.370;2024-01-15T06:51:35;1.60;80.90
20487;DHT22;10402;49.012;8.370;2024-01-15T06:54:01;1.60;80.80
20487;DHT22;10402;49.012;8.370;2024-01-15T06:56:27;1.60;80.80
20487;DHT22;10402;49.012;8.370;2024-01-15T06:58:52;1.60;80.90
20487;DHT22;10402;49.012;8.370;2024-01-15T07:01:18;1.60;81.00
20487;DHT22;10402;49.012;8.370;2024-01-15T07:03:43;1.60;81.00
20487;DHT22;10402;49.012;8.370;2024-01-15T07:06:10;1.60;81.10
20487;DHT22;10402;49.012;8.370;2024-01-15T07:08:35;1.60;81.00
20487;DHT22;10402;49.012;8.370;2024-01-15T07:11:04;1.70;81.00
20487;DHT22;10402;49.012;8.370;2024-01-15T07:13:30;1.70;81.80
20487;DHT22;10402;49.012;8.370;2024-01-15T07:15:55;1.70;81.00
20487;DHT22;10402;49.012;8.370;2024-01-15T07:18:21;1.70;81.00
20487;DHT22;10402;49.012;8.370;2024-01-15T07:20:46;1.80;80.90
20487;DHT22;10402;49.012;8.370;2024-01-15T07:23:12;1.80;80.70
20487;DHT22;10402;49.012;8.370;2024-01-15T07:25:37;1.90;80.70
20487;DHT22;10402;49.012;8.370;2024-01-15T07:28:03;1.90;80.60
20487;DHT22;10402;49.012;8.370;2024-01-15T07:30:29;1.90;80.40
20487;DHT22;10402;49.012;8.370;2024-01-15T07:32:54;1.90;80.30
20487;DHT22;10402;49.012;8.370;2024-01-15T07:35:20;1.90;80.30
20487;DHT22;10402;49.012;8.370;2024-01-15T07:37:46;1.80;80.30
20487;DHT22;10402;49.012;8.370;2024-01-15T07:40:12;1.80;80.20
20487;DHT22;10402;49.012;8.370;2024-01-15T07:42:37;1.80;80.30
20487;DHT22;10402;49.012;8.370;2024-01-15T07:45:08;1.80;80.60
20487;DHT22;10402;49.012;8.370;2024-01-15T07:47:34;1.70;80.50
20487;DHT22;10402;49.012;8.370;2024-01-15T07:50:00;1.80;80.70
20487;DHT22;10402;49.012;8.370;2024-01-15T07:52:26;1.80;80.70
20487;DHT22;10402;49.012;8.370;2024-01-15T07:54:51;1.80;80.70
20487;DHT22;10402;49.012;8.370;2024-01-15T07:57:17;1.80;80.70
20487;DHT22;10402;49.012;8.370;2024-01-15T07:59:43;1.90;80.70
20487;DHT22;10402;49.012;8.370;2024-01-15T08:02:08;1.80;80.50
20487;DHT22;10402;49.012;8.370;2024-01-15T08:04:34;1.80;80.60
20487;DHT22;10402;49.012;8.370;2024-01-15T08:06:59;1.80;80.70
20487;DHT22;10402;49.012;8.370;2024-01-15T08:09:25;1.80;80.70
20487;DHT22;10402;49.012;8.370;2024-01-15T08:11:50;1.90;80.80
20487;DHT22;10402;49.012;8.370;2024-01-15T08:14:17;1.90;80.80
20487;DHT22;10402;49.012;8.370;2024-01-15T08:16:43;1.90;80.90
20487;DHT22;10402;49.012;8.370;2024-01-15T08:19:09;1.90;81.00
20487;DHT22;10402;49.012;8.370;2024-01-15T08:21:35;2.00;81.10
20487;DHT22;10402;49.012;8.370;2024-01-15T08:24:01;1.90;81.00
20487;DHT22;10402;49.012;8.370;2024-01-15T08:26:30;1.90;81.10
20487;DHT22;10402;49.012;8.370;2024-01-15T08:28:55;2.00;82.00
20487;DHT22;10402;49.012;8.370;2024-01-15T08:31:21;2.00;81.30
20487;DHT22;10402;49.012;8.370;2024-01-15T08:33:47;2.00;81.40
20487;DHT22;10402;49.012;8.370;2024-01-15T08:36:12;2.00;81.30
20487;DHT22;10402;49.012;8.370;2024-01-15T08:38:38;2.00;81.40
20487;DHT22;10402;49.012;8.370;2024-01-15T08:41:04;2.00;81.30
20487;DHT22;10402;49.012;8.370;2024-01-15T08:43:29;2.10;81.40
20487;DHT22;10402;49.012;8.370;2024-01-15T08:45:56;2.10;82.20
20487;DHT22;10402;49.012;8.370;2024-01-15T08:48:22;2.10;81.50
20487;DHT22;10402;49.012;8.370;2024-01-15T08:50:48;2.10;81.50
20487;DHT22;10402;49.012;8.370;2024-01-15T08:53:14;2.10;81.60
20487;DHT22;10402;49.012;8.370;2024-01-15T08:55:40;2.10;81.50
20487;DHT22;10402;49.012;8.370;2024-01-15T08:58:07;2.10;81.50
20487;DHT22;10402;49.012;8.370;2024-01-15T09:00:33;2.10;81.50
20487;DHT22;10402;49.012;8.370;2024-01-15T09:02:59;2.10;81.50
20487;DHT22;10402;49.012;8.370;2024-01-15T09:05:25;2.10;81.40
20487;DHT22;10402;49.012;8.370;2024-01-15T09:07:50;2.10;81.40
20487;DHT22;10402;49.012;8.370;2024-01-15T09:10:17;2.10;81.40
20487;DHT22;10402;49.012;8.370;2024-01-15T09:12:43;2.10;81.40
20487;DHT22;10402;49.012;8.370;2024-01-15T09:15:09;2.20;81.50
20487;DHT22;10402;49.012;8.370;2024-01-15T09:17:34;2.20;81.40
20487;DHT22;10402;49.012;8.370;2024-01-15T09:20:00;2.20;81.40
20487;DHT22;10402;49.012;8.370;2024-01-15T09:22:26;2.20;81.30
20487;DHT22;10402;49.012;8.370;2024-01-15T09:24:52;2.30;81.20
20487;DHT22;10402;49.012;8.370;2024-01-15T09:27:17;2.30;81.20
20487;DHT22;10402;49.012;8.370;2024-01-15T09:29:43;2.30;81.10
20487;DHT22;10402;49.012;8.370;2024-01-15T09:32:11;2.30;81.00
20487;DHT22;10402;49.012;8.370;2024-01-15T09:34:37;2.30;80.90
20487;DHT22;10402;49.012;8.370;2024-01-15T09:37:03;2.40;80.90
20487;DHT22;10402;49.012;8.370;2024-01-15T09:39:29;2.40;80.80
20487;DHT22;10402;49.012;8.370;2024-01-15T09:41:56;2.40;80.80
20487;DHT22;10402;49.012;8.370;2024-01-15T09:44:21;2.40;80.80
20487;DHT22;10402;49.012;8.370;2024-01-15T09:46:47;2.50;80.70
20487;DHT22;10402;49.012;8.370;2024-01-15T09:49:16;2.40;80.70
20487;DHT22;10402;49.012;8.370;2024-01-15T09:51:42;2.50;80.80
20487;DHT22;10402;49.012;8.370;2024-01-15T09:54:08;2.50;80.60
20487;DHT22;10402;49.012;8.370;2024-01-15T09:56:34;2.50;80.60
20487;DHT22;10402;49.012;8.370;2024-01-15T09:59:01;2.50;80.50
20487;DHT22;10402;49.012;8.370;2024-01-15T10:01:26;2.50;80.50
20487;DHT22;10402;49.012;8.370;2024-01-15T10:03:54;2.50;80.60
20487;DHT22;10402;49.012;8.370;2024-01-15T10:06:21;2.50;80.80
20487;DHT22;10402;49.012;8.370;2024-01-15T10:08:49;2.60;81.00
20487;DHT22;10402;49.012;8.370;2024-01-15T10:11:15;2.50;81.10
20487;DHT22;10402;49.012;8.370;2024-01-15T10:13:46;2.50;81.30
20487;DHT22;10402;49.012;8.370;2024-01-15T10:16:12;2.50;81.40
20487;DHT22;10402;49.012;8.370;2024-01-15T10:18:37;2.50;81.60
20487;DHT22;10402;49.012;8.370;2024-01-15T10:21:06;2.60;81.90
20487;DHT22;10402;49.012;8.370;2024-01-15T10:23:32;2.60;82.10
20487;DHT22;10402;49.012;8.370;2024-01-15T10:25:57;2.60;82.40
20487;DHT22;10402;49.012;8.370;2024-01-15T10:28:26;2.50;82.30
20487;DHT22;10402;49.012;8.370;2024-01-15T10:30:56;2.50;82.70
20487;DHT22;10402;49.012;8.370;2024-01-15T10:33:22;2.50;83.00
20487;DHT22;10402;49.012;8.370;2024-01-15T10:35:55;2.50;83.30
20487;DHT22;10402;49.012;8.370;2024-01-15T10:38:22;2.50;83.50
20487;DHT22;10402;49.012;8.370;2024-01-15T10:40:50;2.50;83.80
20487;DHT22;10402;49.012;8.370;2024-01-15T10:43:16;2.60;84.20
20487;DHT22;10402;49.012;8.370;2024-01-15T10:45:47;2.60;84.20
20487;DHT22;10402;49.012;8.370;2024-01-15T10:48:13;2.60;84.60
20487;DHT22;10402;49.012;8.370;2024-01-15T10:50:39;2.50;84.80
20487;DHT22;10402;49.012;8.370;2024-01-15T10:53:05;2.50;85.10
20487;DHT22;10402;49.012;8.370;2024-01-15T10:55:35;2.50;85.30
20487;DHT22;10402;49.012;8.370;2024-01-15T10:58:02;2.50;85.90
20487;DHT22;10402;49.012;8.370;2024-01-15T11:00:29;2.60;86.30
20487;DHT22;10402;49.012;8.370;2024-01-15T11:02:55;2.60;86.40
20487;DHT22;10402;49.012;8.370;2024-01-15T11:05:22;2.60;86.60
20487;DHT22;10402;49.012;8.370;2024-01-15T11:07:48;2.60;86.90
20487;DHT22;10402;49.012;8.370;2024-01-15T11:10:39;2.60;87.10
20487;DHT22;10402;49.012;8.370;2024-01-15T11:13:43;2.60;87.40
20487;DHT22;10402;49.012;8.370;2024-01-15T11:16:14;2.60;87.50
20487;DHT22;10402;49.012;8.370;2024-01-15T11:18:42;2.60;87.90
20487;DHT22;10402;49.012;8.370;2024-01-15T11:26:33;2.60;88.70
20487;DHT22;10402;49.012;8.370;2024-01-15T11:29:05;2.60;88.80
20487;DHT22;10402;49.012;8.370;2024-01-15T11:34:09;2.60;89.20
20487;DHT22;10402;49.012;8.370;2024-01-15T11:41:54;2.60;89.60
20487;DHT22;10402;49.012;8.370;2024-01-15T11:44:21;2.60;89.60
20487;DHT22;10402;49.012;8.370;2024-01-15T11:47:03;2.60;89.80
20487;DHT22;10402;49.012;8.370;2024-01-15T11:49:56;2.70;90.00
20487;DHT22;10402;49.012;8.370;2024-01-15T11:52:23;2.70;90.10
20487;DHT22;10402;49.012;8.370;2024-01-15T11:57:45;2.80;90.30
20487;DHT22;10402;49.012;8.370;2024-01-15T12:00:12;2.80;90.30
20487;DHT22;10402;49.012;8.370;2024-01-15T12:02:42;2.80;90.50
20487;DHT22;10402;49.012;8.370;2024-01-15T12:05:13;2.80;90.60
20487;DHT22;10402;49.012;8.370;2024-01-15T12:07:40;2.80;90.60
20487;DHT22;10402;49.012;8.370;2024-01-15T12:10:09;2.80;90.60
20487;DHT22;10402;49.012;8.370;2024-01-15T12:12:58;2.90;90.70
20487;DHT22;10402;49.012;8.370;2024-01-15T12:15:29;2.90;90.80
20487;DHT22;10402;49.012;8.370;2024-01-15T12:17:56;2.90;90.90
20487;DHT22;10402;49.012;8.370;2024-01-15T12:20:23;2.90;90.90
20487;DHT22;10402;49.012;8.370;2024-01-15T12:22:49;2.90;91.00
20487;DHT22;10402;49.012;8.370;2024-01-15T12:25:15;3.00;91.10
20487;DHT22;10402;49.012;8.370;2024-01-15T12:27:40;3.00;91.10
20487;DHT22;10402;49.012;8.370;2024-01-15T12:30:06;3.00;91.10
20487;DHT22;10402;49.012;8.370;2024-01-15T12:32:32;2.90;91.10
20487;DHT22;10402;49.012;8.370;2024-01-15T12:35:00;3.00;91.20
20487;DHT22;10402;49.012;8.370;2024-01-15T12:37:25;3.00;91.20
20487;DHT22;10402;49.012;8.370;2024-01-15T12:39:52;3.00;91.20
20487;DHT22;10402;49.012;8.370;2024-01-15T12:42:21;3.00;91.30
20487;DHT22;10402;49.012;8.370;2024-01-15T12:44:47;3.10;91.40
20487;DHT22;10402;49.012;8.370;2024-01-15T12:47:13;3.10;91.40
20487;DHT22;10402;49.012;8.370;2024-01-15T12:49:39;3.10;91.40
20487;DHT22;10402;49.012;8.370;2024-01-15T12:52:08;3.20;91.40
20487;DHT22;10402;49.012;8.370;2024-01-15T12:54:34;3.20;91.30
20487;DHT22;10402;49.012;8.370;2024-01-15T12:56:59;3.20;91.40
20487;DHT22;10402;49.012;8.370;2024-01-15T12:59:25;3.20;91.40
20487;DHT22;10402;49.012;8.370;2024-01-15T13:01:51;3.20;91.40
20487;DHT22;10402;49.012;8.370;2024-01-15T13:04:23;3.20;91.40
20487;DHT22;10402;49.012;8.370;2024-01-15T13:06:50;3.30;91.50
20487;DHT22;10402;49.012;8.370;2024-01-15T13:09:17;3.30;91.40
20487;DHT22;10402;49.012;8.370;2024-01-15T13:11:44;3.30;91.40
20487;DHT22;10402;49.012;8.370;2024-01-15T13:14:10;3.30;91.40
20487;DHT22;10402;49.012;8.370;2024-01-15T13:16:36;3.30;91.50
20487;DHT22;10402;49.012;8.370;2024-01-15T13:19:01;3.40;91.60
20487;DHT22;10402;49.012;8.370;2024-01-15T13:21:29;3.40;91.60
20487;DHT22;10402;49.012;8.370;2024-01-15T13:23:55;3.40;91.60
20487;DHT22;10402;49.012;8.370;2024-01-15T13:26:21;3.40;91.60
20487;DHT22;10402;49.012;8.370;2024-01-15T13:28:46;3.40;91.60
20487;DHT22;10402;49.012;8.370;2024-01-15T13:31:12;3.40;91.60
20487;DHT22;10402;49.012;8.370;2024-01-15T13:33:38;3.40;91.60
20487;DHT22;10402;49.012;8.370;2024-01-15T13:36:04;3.40;91.50
20487;DHT22;10402;49.012;8.370;2024-01-15T13:38:33;3.40;91.50
20487;DHT22;10402;49.012;8.370;2024-01-15T13:41:01;3.50;91.60
20487;DHT22;10402;49.012;8.370;2024-01-15T13:43:27;3.50;91.50
20487;DHT22;10402;49.012;8.370;2024-01-15T13:45:52;3.50;91.50
20487;DHT22;10402;49.012;8.370;2024-01-15T13:48:19;3.50;91.40
20487;DHT22;10402;49.012;8.370;2024-01-15T13:50:44;3.50;91.50
20487;DHT22;10402;49.012;8.370;2024-01-15T13:53:10;3.40;91.40
20487;DHT22;10402;49.012;8.370;2024-01-15T13:55:35;3.40;91.40
20487;DHT22;10402;49.012;8.370;2024-01-15T13:58:01;3.40;91.50
20487;DHT22;10402;49.012;8.370;2024-01-15T14:00:29;3.40;91.50
20487;DHT22;10402;49.012;8.370;2024-01-15T14:02:54;3.40;91.60
20487;DHT22;10402;49.012;8.370;2024-01-15T14:05:20;3.40;91.60
20487;DHT22;10402;49.012;8.370;2024-01-15T14:07:45;3.50;92.00
20487;DHT22;10402;49.012;8.370;2024-01-15T14:10:12;3.50;91.60
20487;DHT22;10402;49.012;8.370;2024-01-15T14:12:38;3.50;91.60
20487;DHT22;10402;49.012;8.370;2024-01-15T14:15:05;3.50;91.50
20487;DHT22;10402;49.012;8.370;2024-01-15T14:17:31;3.50;91.40
20487;DHT22;10402;49.012;8.370;2024-01-15T14:19:57;3.50;91.40
20487;DHT22;10402;49.012;8.370;2024-01-15T14:22:22;3.60;91.40
20487;DHT22;10402;49.012;8.370;2024-01-15T14:24:48;3.50;91.30
20487;DHT22;10402;49.012;8.370;2024-01-15T14:27:14;3.50;91.30
20487;DHT22;10402;49.012;8.370;2024-01-15T14:29:40;3.50;91.40
20487;DHT22;10402;49.012;8.370;2024-01-15T14:32:05;3.60;91.40
20487;DHT22;10402;49.012;8.370;2024-01-15T14:34:31;3.50;91.20
20487;DHT22;10402;49.012;8.370;2024-01-15T14:36:56;3.50;91.20
20487;DHT22;10402;49.012;8.370;2024-01-15T14:39:22;3.50;91.20
20487;DHT22;10402;49.012;8.370;2024-01-15T14:41:48;3.50;91.30
20487;DHT22;10402;49.012;8.370;2024-01-15T14:44:14;3.50;91.30
20487;DHT22;10402;49.012;8.370;2024-01-15T14:46:40;3.50;91.30
20487;DHT22;10402;49.012;8.370;2024-01-15T14:49:06;3.60;91.30
20487;DHT22;10402;49.012;8.370;2024-01-15T14:51:32;3.60;91.20
20487;DHT22;10402;49.012;8.370;2024-01-15T14:53:57;3.60;91.20
20487;DHT22;10402;49.012;8.370;2024-01-15T14:56:24;3.60;91.10
20487;DHT22;10402;49.012;8.370;2024-01-15T14:58:49;3.50;91.00
20487;DHT22;10402;49.012;8.370;2024-01-15T15:01:15;3.60;90.90
20487;DHT22;10402;49.012;8.370;2024-01-15T15:03:41;3.60;90.80
20487;DHT22;10402;49.012;8.370;2024-01-15T15:06:06;3.60;90.60
20487;DHT22;10402;49.012;8.370;2024-01-15T15:08:34;3.50;90.40
20487;DHT22;10402;49.012;8.370;2024-01-15T15:11:01;3.60;90.20
20487;DHT22;10402;49.012;8.370;2024-01-15T15:13:26;3.50;90.20
20487;DHT22;10402;49.012;8.370;2024-01-15T15:15:53;3.50;90.20
20487;DHT22;10402;49.012;8.370;2024-01-15T15:18:21;3.50;90.20
20487;DHT22;10402;49.012;8.370;2024-01-15T15:20:50;3.60;90.20
20487;DHT22;10402;49.012;8.370;2024-01-15T15:23:17;3.60;90.10
20487;DHT22;10402;49.012;8.370;2024-01-15T15:25:43;3.60;90.00
20487;DHT22;10402;49.012;8.370;2024-01-15T15:28:09;3.50;90.00
20487;DHT22;10402;49.012;8.370;2024-01-15T15:30:37;3.50;89.90
20487;DHT22;10402;49.012;8.370;2024-01-15T15:33:03;3.50;89.80
20487;DHT22;10402;49.012;8.370;2024-01-15T15:35:28;3.50;89.70
20487;DHT22;10402;49.012;8.370;2024-01-15T15:37:54;3.50;89.50
20487;DHT22;10402;49.012;8.370;2024-01-15T15:40:20;3.50;89.30
20487;DHT22;10402;49.012;8.370;2024-01-15T15:42:46;3.50;89.30
20487;DHT22;10402;49.012;8.370;2024-01-15T15:45:12;3.50;89.30
20487;DHT22;10402;49.012;8.370;2024-01-15T15:47:38;3.50;89.00
20487;DHT22;10402;49.012;8.370;2024-01-15T15:50:04;3.50;88.90
20487;DHT22;10402;49.012;8.370;2024-01-15T15:52:30;3.60;89.10
20487;DHT22;10402;49.012;8.370;2024-01-15T15:54:55;3.60;89.00